createdAt,value
2019-02-25T00:00:13.853Z,56.34
2019-02-25T00:01:13.838Z,57.59
2019-02-25T00:02:13.859Z,57.38
2019-02-25T00:03:13.819Z,57.61
2019-02-25T00:04:13.805Z,57.40
2019-02-25T00:05:13.795Z,57.40
2019-02-25T00:06:13.785Z,57.51
2019-02-25T00:07:13.772Z,57.51
2019-02-25T00:08:13.776Z,57.51
2019-02-25T00:09:13.748Z,57.61
2019-02-25T00:10:13.738Z,57.92
2019-02-25T00:11:13.732Z,57.61
2019-02-25T00:12:13.715Z,57.30
2019-02-25T00:13:14.729Z,57.51
2019-02-25T00:14:13.699Z,57.51
2019-02-25T00:15:13.681Z,58.23
2019-02-25T00:16:13.669Z,57.92
2019-02-25T00:17:15.005Z,57.74
2019-02-25T00:18:13.652Z,57.51
2019-02-25T00:19:13.654Z,58.15
2019-02-25T00:20:13.625Z,57.92
2019-02-25T00:21:13.612Z,57.82
2019-02-25T00:22:13.601Z,58.03
2019-02-25T00:23:13.590Z,58.65
2019-02-25T00:24:13.607Z,58.86
2019-02-25T00:25:13.574Z,58.23
2019-02-25T00:26:13.556Z,58.75
2019-02-25T00:27:13.544Z,58.15
2019-02-25T00:28:13.533Z,58.78
2019-02-25T00:29:13.523Z,59.17
2019-02-25T00:30:13.578Z,58.78
2019-02-25T00:31:13.502Z,59.19
2019-02-25T00:32:13.487Z,58.98
2019-02-25T00:33:13.476Z,59.09
2019-02-25T00:34:13.467Z,59.09
2019-02-25T00:35:13.471Z,58.67
2019-02-25T00:36:13.444Z,58.88
2019-02-25T00:37:13.433Z,58.78
2019-02-25T00:38:13.424Z,58.67
2019-02-25T00:39:13.411Z,59.92
2019-02-25T00:40:13.433Z,60.03
2019-02-25T00:41:13.387Z,59.82
2019-02-25T00:42:13.382Z,59.61
2019-02-25T00:43:13.366Z,58.88
2019-02-25T00:44:13.355Z,59.09
2019-02-25T00:45:13.344Z,59.09
2019-02-25T00:46:13.347Z,58.88
2019-02-25T00:47:13.318Z,59.40
2019-02-25T00:48:13.310Z,59.01
2019-02-25T00:49:13.297Z,58.78
2019-02-25T00:50:13.294Z,59.33
2019-02-25T00:51:13.304Z,59.12
2019-02-25T00:52:13.262Z,59.53
2019-02-25T00:53:13.251Z,58.70
2019-02-25T00:54:13.245Z,59.95
2019-02-25T00:55:13.229Z,60.26
2019-02-25T00:56:13.236Z,59.22
2019-02-25T00:57:13.221Z,58.81
2019-02-25T00:58:13.195Z,59.09
2019-02-25T00:59:13.184Z,59.22
2019-02-25T01:00:13.173Z,59.33
2019-02-25T01:01:13.162Z,58.81
2019-02-25T01:02:13.165Z,57.87
2019-02-25T01:03:13.139Z,58.39
2019-02-25T01:04:13.127Z,57.87
2019-02-25T01:05:13.116Z,57.67
2019-02-25T01:06:13.109Z,57.45
2019-02-25T01:07:13.125Z,57.56
2019-02-25T01:08:13.080Z,57.56
2019-02-25T01:09:13.070Z,57.77
2019-02-25T01:10:13.057Z,57.67
2019-02-25T01:11:13.045Z,58.29
2019-02-25T01:12:13.036Z,57.98
2019-02-25T01:13:13.042Z,58.08
2019-02-25T01:14:13.016Z,58.18
2019-02-25T01:15:13.007Z,58.88
2019-02-25T01:16:12.989Z,58.81
2019-02-25T01:17:12.979Z,58.81
2019-02-25T01:18:13.006Z,58.60
2019-02-25T01:19:12.956Z,58.39
2019-02-25T01:20:12.945Z,58.50
2019-02-25T01:21:12.935Z,58.05
2019-02-25T01:22:12.921Z,58.81
2019-02-25T01:23:12.912Z,58.81
2019-02-25T01:24:12.932Z,58.81
2019-02-25T01:25:12.889Z,58.91
2019-02-25T01:26:12.877Z,58.70
2019-02-25T01:27:12.867Z,59.01
2019-02-25T01:28:12.858Z,59.33
2019-02-25T01:29:12.850Z,59.01
2019-02-25T01:30:12.859Z,59.01
2019-02-25T01:31:12.820Z,59.01
2019-02-25T01:32:12.808Z,58.91
2019-02-25T01:33:12.796Z,58.91
2019-02-25T01:34:12.784Z,58.91
2019-02-25T01:35:12.792Z,59.12
2019-02-25T01:36:12.765Z,59.53
2019-02-25T01:37:12.751Z,59.12
2019-02-25T01:38:12.741Z,59.12
2019-02-25T01:39:12.729Z,59.33
2019-02-25T01:40:12.749Z,58.91
2019-02-25T01:41:12.708Z,58.94
2019-02-25T01:42:12.696Z,58.94
2019-02-25T01:43:12.687Z,59.43
2019-02-25T01:44:12.673Z,59.25
2019-02-25T01:45:12.663Z,58.94
2019-02-25T01:46:12.666Z,59.25
2019-02-25T01:47:12.639Z,60.29
2019-02-25T01:48:12.628Z,60.16
2019-02-25T01:49:12.618Z,59.84
2019-02-25T01:50:12.605Z,60.08
2019-02-25T01:51:12.608Z,60.39
2019-02-25T01:52:12.612Z,60.29
2019-02-25T01:53:12.572Z,60.60
2019-02-25T01:54:12.561Z,60.29
2019-02-25T01:55:12.547Z,60.39
2019-02-25T01:56:12.553Z,60.81
2019-02-25T01:57:12.531Z,60.29
2019-02-25T01:58:12.514Z,59.66
2019-02-25T01:59:12.502Z,59.35
2019-02-25T02:00:12.492Z,59.25
2019-02-25T02:01:12.495Z,59.04
2019-02-25T02:02:12.467Z,60.08
2019-02-25T02:03:12.456Z,60.29
2019-02-25T02:04:12.448Z,60.08
2019-02-25T02:05:12.436Z,60.42
2019-02-25T02:06:12.439Z,59.88
2019-02-25T02:07:12.412Z,59.25
2019-02-25T02:08:12.399Z,60.29
2019-02-25T02:09:12.389Z,60.19
2019-02-25T02:10:12.378Z,59.98
2019-02-25T02:11:12.381Z,60.50
2019-02-25T02:12:12.366Z,60.29
2019-02-25T02:13:14.474Z,60.91
2019-02-25T02:14:12.333Z,61.36
2019-02-25T02:15:12.320Z,61.33
2019-02-25T02:16:12.333Z,61.02
2019-02-25T02:17:12.302Z,60.50
2019-02-25T02:18:12.289Z,60.50
2019-02-25T02:19:12.274Z,60.60
2019-02-25T02:20:12.263Z,60.60
2019-02-25T02:21:12.271Z,60.60
2019-02-25T02:22:12.243Z,60.50
2019-02-25T02:23:12.230Z,60.29
2019-02-25T02:24:12.218Z,60.08
2019-02-25T02:25:12.206Z,60.29
2019-02-25T02:26:12.232Z,60.83
2019-02-25T02:27:12.183Z,60.29
2019-02-25T02:28:12.173Z,60.91
2019-02-25T02:29:12.195Z,60.73
2019-02-25T02:30:12.160Z,60.73
2019-02-25T02:31:12.139Z,60.91
2019-02-25T02:32:12.155Z,61.36
2019-02-25T02:33:12.116Z,60.71
2019-02-25T02:34:12.105Z,61.02
2019-02-25T02:35:12.093Z,60.60
2019-02-25T02:36:12.087Z,60.60
2019-02-25T02:37:12.072Z,60.81
2019-02-25T02:38:12.092Z,61.25
2019-02-25T02:39:12.049Z,60.31
2019-02-25T02:40:12.036Z,60.94
2019-02-25T02:41:12.030Z,60.83
2019-02-25T02:42:12.014Z,61.46
2019-02-25T02:43:12.007Z,61.98
2019-02-25T02:44:12.492Z,61.98
2019-02-25T02:45:11.978Z,62.08
2019-02-25T02:46:11.971Z,62.08
2019-02-25T02:47:11.957Z,61.57
2019-02-25T02:48:11.948Z,61.88
2019-02-25T02:49:11.937Z,61.98
2019-02-25T02:50:11.940Z,61.77
2019-02-25T02:51:11.913Z,61.57
2019-02-25T02:52:11.900Z,61.36
2019-02-25T02:53:11.905Z,61.77
2019-02-25T02:54:11.877Z,61.15
2019-02-25T02:55:11.882Z,61.57
2019-02-25T02:56:11.853Z,61.77
2019-02-25T02:57:11.864Z,61.77
2019-02-25T02:58:11.840Z,61.88
2019-02-25T02:59:12.532Z,61.46
2019-02-25T03:00:11.831Z,61.67
2019-02-25T03:01:11.801Z,61.46
2019-02-25T03:02:11.787Z,61.67
2019-02-25T03:03:11.833Z,61.67
2019-02-25T03:04:11.767Z,61.77
2019-02-25T03:05:11.774Z,61.67
2019-02-25T03:06:11.743Z,61.77
2019-02-25T03:07:11.728Z,62.08
2019-02-25T03:08:11.719Z,61.25
2019-02-25T03:09:11.705Z,61.98
2019-02-25T03:10:11.722Z,61.77
2019-02-25T03:11:11.684Z,62.08
2019-02-25T03:12:11.672Z,61.77
2019-02-25T03:13:11.662Z,61.46
2019-02-25T03:14:11.649Z,62.08
2019-02-25T03:15:11.639Z,61.88
2019-02-25T03:16:11.649Z,61.57
2019-02-25T03:17:11.616Z,61.67
2019-02-25T03:18:11.607Z,61.98
2019-02-25T03:19:11.595Z,61.67
2019-02-25T03:20:11.591Z,61.59
2019-02-25T03:21:11.590Z,61.57
2019-02-25T03:22:11.618Z,61.57
2019-02-25T03:23:11.546Z,61.69
2019-02-25T03:24:11.542Z,61.69
2019-02-25T03:25:11.524Z,61.77
2019-02-25T03:26:11.532Z,61.80
2019-02-25T03:27:11.500Z,61.59
2019-02-25T03:28:11.490Z,61.69
2019-02-25T03:29:11.479Z,61.38
2019-02-25T03:30:11.468Z,61.59
2019-02-25T03:31:11.476Z,61.69
2019-02-25T03:32:11.445Z,61.80
2019-02-25T03:33:11.437Z,61.69
2019-02-25T03:34:11.438Z,61.69
2019-02-25T03:35:11.413Z,61.80
2019-02-25T03:36:11.430Z,61.52
2019-02-25T03:37:11.388Z,62.14
2019-02-25T03:38:11.379Z,61.62
2019-02-25T03:39:11.367Z,61.72
2019-02-25T03:40:11.357Z,61.69
2019-02-25T03:41:11.349Z,62.14
2019-02-25T03:42:11.359Z,62.14
2019-02-25T03:43:11.321Z,61.93
2019-02-25T03:44:11.308Z,61.62
2019-02-25T03:45:11.297Z,61.80
2019-02-25T03:46:11.288Z,62.11
2019-02-25T03:47:11.286Z,61.90
2019-02-25T03:48:11.295Z,61.49
2019-02-25T03:49:11.255Z,61.69
2019-02-25T03:50:11.243Z,61.69
2019-02-25T03:51:11.228Z,61.80
2019-02-25T03:52:11.217Z,60.86
2019-02-25T03:53:11.232Z,60.76
2019-02-25T03:54:11.198Z,61.07
2019-02-25T03:55:11.184Z,61.80
2019-02-25T03:56:11.173Z,61.80
2019-02-25T03:57:11.165Z,61.52
2019-02-25T03:58:11.153Z,61.41
2019-02-25T03:59:11.162Z,60.68
2019-02-25T04:00:11.164Z,60.78
2019-02-25T04:01:11.115Z,61.10
2019-02-25T04:02:11.107Z,60.78
2019-02-25T04:03:11.092Z,61.41
2019-02-25T04:04:11.109Z,61.41
2019-02-25T04:05:11.071Z,62.11
2019-02-25T04:06:11.064Z,62.14
2019-02-25T04:07:11.047Z,60.78
2019-02-25T04:08:11.036Z,60.68
2019-02-25T04:09:11.029Z,61.21
2019-02-25T04:10:11.036Z,60.45
2019-02-25T04:11:11.000Z,60.14
2019-02-25T04:12:10.991Z,60.37
2019-02-25T04:13:10.980Z,59.95
2019-02-25T04:14:10.967Z,59.23
2019-02-25T04:15:10.960Z,59.23
2019-02-25T04:16:10.962Z,60.27
2019-02-25T04:17:10.936Z,59.93
2019-02-25T04:18:10.925Z,60.35
2019-02-25T04:19:10.917Z,60.78
2019-02-25T04:20:10.900Z,60.35
2019-02-25T04:21:10.916Z,60.78
2019-02-25T04:22:10.877Z,60.78
2019-02-25T04:23:10.867Z,60.66
2019-02-25T04:24:10.863Z,60.47
2019-02-25T04:25:10.844Z,60.66
2019-02-25T04:26:10.879Z,61.21
2019-02-25T04:27:10.840Z,60.47
2019-02-25T04:28:10.811Z,60.35
2019-02-25T04:29:10.798Z,59.44
2019-02-25T04:30:10.789Z,59.54
2019-02-25T04:31:10.773Z,60.47
2019-02-25T04:32:10.779Z,60.35
2019-02-25T04:33:10.753Z,59.95
2019-02-25T04:34:10.742Z,60.78
2019-02-25T04:35:10.735Z,60.47
2019-02-25T04:36:10.717Z,60.37
2019-02-25T04:37:10.735Z,60.68
2019-02-25T04:38:10.694Z,60.68
2019-02-25T04:39:10.684Z,60.78
2019-02-25T04:40:10.678Z,60.24
2019-02-25T04:41:10.663Z,60.58
2019-02-25T04:42:10.649Z,61.10
2019-02-25T04:43:10.661Z,60.47
2019-02-25T04:44:10.626Z,60.37
2019-02-25T04:45:10.617Z,60.47
2019-02-25T04:46:10.605Z,60.58
2019-02-25T04:47:10.593Z,60.37
2019-02-25T04:48:10.598Z,60.47
2019-02-25T04:49:10.574Z,60.27
2019-02-25T04:50:10.566Z,60.89
2019-02-25T04:51:10.550Z,60.27
2019-02-25T04:52:10.535Z,61.10
2019-02-25T04:53:10.539Z,60.78
2019-02-25T04:54:10.514Z,60.78
2019-02-25T04:55:10.526Z,60.78
2019-02-25T04:56:10.496Z,60.78
2019-02-25T04:57:10.478Z,60.78
2019-02-25T04:58:10.468Z,60.78
2019-02-25T04:59:10.457Z,60.68
2019-02-25T05:00:10.443Z,61.10
2019-02-25T05:01:10.461Z,60.78
2019-02-25T05:02:10.426Z,60.78
2019-02-25T05:03:10.411Z,61.21
2019-02-25T05:04:10.407Z,60.89
2019-02-25T05:05:10.388Z,60.78
2019-02-25T05:06:10.382Z,60.68
2019-02-25T05:07:10.389Z,61.21
2019-02-25T05:08:10.354Z,61.23
2019-02-25T05:09:10.341Z,60.78
2019-02-25T05:10:10.329Z,61.00
2019-02-25T05:11:10.323Z,60.78
2019-02-25T05:12:10.338Z,60.78
2019-02-25T05:13:10.300Z,61.41
2019-02-25T05:14:10.287Z,61.83
2019-02-25T05:15:10.276Z,60.89
2019-02-25T05:16:10.263Z,60.68
2019-02-25T05:17:10.260Z,60.58
2019-02-25T05:18:10.274Z,61.44
2019-02-25T05:19:10.229Z,61.96
2019-02-25T05:20:10.226Z,61.65
2019-02-25T05:21:10.205Z,61.76
2019-02-25T05:22:10.196Z,62.24
2019-02-25T05:23:10.182Z,61.65
2019-02-25T05:24:10.196Z,61.96
2019-02-25T05:25:10.163Z,61.76
2019-02-25T05:26:10.148Z,62.17
2019-02-25T05:27:10.139Z,61.86
2019-02-25T05:28:10.128Z,61.52
2019-02-25T05:29:10.145Z,61.83
2019-02-25T05:30:10.110Z,61.86
2019-02-25T05:31:10.095Z,61.76
2019-02-25T05:32:10.082Z,62.17
2019-02-25T05:33:10.070Z,62.27
2019-02-25T05:34:10.061Z,61.96
2019-02-25T05:35:10.074Z,61.65
2019-02-25T05:36:10.039Z,61.76
2019-02-25T05:37:10.029Z,62.14
2019-02-25T05:38:10.018Z,61.83
2019-02-25T05:39:10.096Z,60.37
2019-02-25T05:40:10.000Z,61.02
2019-02-25T05:41:10.005Z,61.44
2019-02-25T05:42:09.979Z,61.13
2019-02-25T05:43:09.959Z,60.92
2019-02-25T05:44:09.945Z,60.50
2019-02-25T05:45:09.935Z,61.86
2019-02-25T05:46:09.922Z,62.17
2019-02-25T05:47:09.932Z,61.76
2019-02-25T05:48:09.899Z,61.86
2019-02-25T05:49:09.889Z,61.65
2019-02-25T05:50:09.875Z,61.86
2019-02-25T05:51:09.873Z,61.65
2019-02-25T05:52:09.885Z,61.96
2019-02-25T05:53:09.862Z,62.17
2019-02-25T05:54:09.850Z,62.07
2019-02-25T05:55:09.826Z,62.17
2019-02-25T05:56:09.810Z,61.54
2019-02-25T05:57:09.799Z,61.96
2019-02-25T05:58:09.815Z,61.93
2019-02-25T05:59:09.776Z,62.17
2019-02-25T06:00:09.763Z,61.65
2019-02-25T06:01:09.750Z,61.76
2019-02-25T06:02:09.739Z,61.86
2019-02-25T06:03:09.728Z,62.27
2019-02-25T06:04:09.737Z,62.35
2019-02-25T06:05:09.706Z,61.96
2019-02-25T06:06:09.693Z,61.86
2019-02-25T06:07:10.501Z,61.72
2019-02-25T06:08:09.678Z,60.82
2019-02-25T06:09:09.690Z,61.23
2019-02-25T06:10:09.653Z,61.44
2019-02-25T06:11:09.642Z,61.21
2019-02-25T06:12:09.625Z,61.13
2019-02-25T06:13:09.640Z,60.92
2019-02-25T06:14:09.603Z,61.33
2019-02-25T06:15:09.624Z,60.47
2019-02-25T06:16:09.583Z,60.89
2019-02-25T06:17:09.570Z,60.68
2019-02-25T06:18:09.561Z,60.58
2019-02-25T06:19:09.548Z,61.62
2019-02-25T06:20:09.536Z,61.10
2019-02-25T06:21:09.552Z,60.89
2019-02-25T06:22:09.519Z,60.78
2019-02-25T06:23:09.508Z,60.82
2019-02-25T06:24:09.491Z,61.33
2019-02-25T06:25:09.480Z,61.33
2019-02-25T06:26:09.467Z,61.13
2019-02-25T06:27:09.474Z,61.33
2019-02-25T06:28:09.444Z,60.82
2019-02-25T06:29:09.438Z,61.13
2019-02-25T06:30:09.425Z,61.72
2019-02-25T06:31:09.411Z,61.44
2019-02-25T06:32:09.430Z,60.61
2019-02-25T06:33:09.398Z,60.78
2019-02-25T06:34:09.377Z,61.23
2019-02-25T06:35:09.370Z,61.02
2019-02-25T06:36:09.354Z,61.10
2019-02-25T06:37:09.343Z,61.10
2019-02-25T06:38:09.369Z,61.21
2019-02-25T06:39:09.325Z,60.58
2019-02-25T06:40:09.310Z,60.27
2019-02-25T06:41:09.298Z,59.95
2019-02-25T06:42:09.285Z,60.06
2019-02-25T06:43:09.274Z,60.37
2019-02-25T06:44:09.286Z,60.14
2019-02-25T06:45:09.254Z,59.20
2019-02-25T06:46:09.241Z,59.75
2019-02-25T06:47:09.228Z,60.06
2019-02-25T06:48:09.218Z,59.02
2019-02-25T06:49:09.232Z,60.27
2019-02-25T06:50:09.194Z,60.16
2019-02-25T06:51:09.185Z,60.37
2019-02-25T06:52:09.174Z,60.24
2019-02-25T06:53:09.162Z,59.12
2019-02-25T06:54:09.149Z,59.82
2019-02-25T06:55:09.165Z,60.14
2019-02-25T06:56:09.126Z,59.93
2019-02-25T06:57:09.115Z,60.03
2019-02-25T06:58:09.104Z,59.61
2019-02-25T06:59:09.094Z,59.41
2019-02-25T07:00:09.084Z,60.31
2019-02-25T07:01:09.098Z,59.28
2019-02-25T07:02:09.062Z,60.00
2019-02-25T07:03:09.051Z,59.17
2019-02-25T07:04:09.034Z,58.97
2019-02-25T07:05:09.025Z,59.17
2019-02-25T07:06:09.019Z,59.38
2019-02-25T07:07:09.018Z,58.86
2019-02-25T07:08:08.994Z,58.83
2019-02-25T07:09:08.982Z,57.79
2019-02-25T07:10:08.975Z,58.21
2019-02-25T07:11:08.956Z,58.42
2019-02-25T07:12:08.963Z,58.83
2019-02-25T07:13:08.932Z,58.11
2019-02-25T07:14:08.922Z,58.83
2019-02-25T07:15:08.910Z,58.42
2019-02-25T07:16:08.906Z,57.67
2019-02-25T07:17:08.919Z,57.98
2019-02-25T07:18:08.876Z,58.18
2019-02-25T07:19:08.865Z,57.64
2019-02-25T07:20:08.854Z,57.43
2019-02-25T07:21:08.847Z,55.95
2019-02-25T07:22:08.830Z,55.85
2019-02-25T07:23:08.848Z,55.12
2019-02-25T07:24:08.811Z,55.43
2019-02-25T07:25:08.797Z,55.43
2019-02-25T07:26:08.787Z,55.51
2019-02-25T07:27:08.775Z,55.51
2019-02-25T07:28:08.764Z,55.20
2019-02-25T07:29:08.767Z,54.24
2019-02-25T07:30:08.742Z,54.13
2019-02-25T07:31:08.731Z,53.92
2019-02-25T07:32:08.722Z,53.28
2019-02-25T07:33:08.712Z,53.59
2019-02-25T07:34:08.731Z,54.24
2019-02-25T07:35:08.688Z,53.82
2019-02-25T07:36:08.678Z,53.69
2019-02-25T07:37:08.661Z,53.77
2019-02-25T07:38:08.652Z,53.36
2019-02-25T07:39:08.639Z,53.46
2019-02-25T07:40:08.644Z,53.44
2019-02-25T07:41:08.617Z,53.44
2019-02-25T07:42:08.607Z,53.00
2019-02-25T07:43:08.597Z,53.41
2019-02-25T07:44:08.583Z,53.20
2019-02-25T07:45:08.600Z,52.56
2019-02-25T07:46:08.563Z,51.71
2019-02-25T07:47:08.553Z,50.49
2019-02-25T07:48:08.539Z,50.57
2019-02-25T07:49:08.528Z,50.47
2019-02-25T07:50:08.518Z,51.09
2019-02-25T07:51:08.531Z,50.68
2019-02-25T07:52:08.497Z,49.93
2019-02-25T07:53:08.482Z,50.34
2019-02-25T07:54:08.470Z,50.42
2019-02-25T07:55:08.461Z,50.84
2019-02-25T07:56:08.452Z,49.68
2019-02-25T07:57:08.467Z,49.47
2019-02-25T07:58:08.427Z,49.05
2019-02-25T07:59:08.416Z,48.02
2019-02-25T08:00:08.402Z,48.21
2019-02-25T08:01:08.391Z,47.69
2019-02-25T08:02:08.387Z,48.19
2019-02-25T08:03:08.388Z,47.98
2019-02-25T08:04:08.358Z,47.67
2019-02-25T08:05:08.346Z,47.85
2019-02-25T08:06:08.347Z,46.62
2019-02-25T08:07:08.323Z,47.03
2019-02-25T08:08:08.340Z,46.72
2019-02-25T08:09:08.302Z,46.92
2019-02-25T08:10:08.290Z,47.44
2019-02-25T08:11:08.278Z,46.92
2019-02-25T08:12:08.270Z,46.28
2019-02-25T08:13:08.255Z,46.39
2019-02-25T08:14:08.262Z,46.19
2019-02-25T08:15:09.024Z,46.16
2019-02-25T08:16:08.221Z,46.37
2019-02-25T08:17:08.210Z,46.34
2019-02-25T08:18:08.197Z,46.04
2019-02-25T08:19:08.218Z,44.57
2019-02-25T08:20:08.175Z,43.57
2019-02-25T08:21:08.166Z,43.36
2019-02-25T08:22:08.153Z,44.18
2019-02-25T08:23:08.141Z,43.75
2019-02-25T08:24:08.132Z,43.42
2019-02-25T08:25:08.137Z,43.84
2019-02-25T08:26:08.107Z,42.91
2019-02-25T08:27:08.105Z,42.37
2019-02-25T08:28:08.084Z,42.17
2019-02-25T08:29:08.074Z,41.75
2019-02-25T08:30:08.090Z,42.47
2019-02-25T08:31:09.257Z,42.05
2019-02-25T08:32:08.039Z,42.86
2019-02-25T08:33:08.083Z,42.35
2019-02-25T08:34:18.973Z,42.86
2019-02-25T08:35:08.004Z,42.05
2019-02-25T08:36:08.012Z,42.14
2019-02-25T08:37:07.989Z,42.54
2019-02-25T08:38:07.972Z,42.44
2019-02-25T08:39:07.961Z,42.44
2019-02-25T08:40:07.947Z,40.89
2019-02-25T08:41:07.964Z,42.02
2019-02-25T08:42:07.929Z,42.77
2019-02-25T08:43:07.914Z,42.13
2019-02-25T08:44:07.905Z,42.64
2019-02-25T08:45:07.891Z,42.72
2019-02-25T08:46:07.884Z,42.00
2019-02-25T08:47:07.898Z,42.11
2019-02-25T08:48:07.875Z,41.28
2019-02-25T08:49:07.849Z,41.16
2019-02-25T08:50:07.841Z,41.58
2019-02-25T08:51:07.823Z,40.96
2019-02-25T08:52:07.816Z,41.16
2019-02-25T08:53:07.820Z,40.75
2019-02-25T08:54:07.790Z,40.65
2019-02-25T08:55:07.777Z,40.94
2019-02-25T08:56:07.768Z,40.82
2019-02-25T08:57:07.758Z,40.82
2019-02-25T08:58:07.775Z,39.79
2019-02-25T08:59:07.733Z,40.29
2019-02-25T09:00:07.723Z,40.19
2019-02-25T09:01:07.711Z,40.17
2019-02-25T09:02:07.697Z,39.65
2019-02-25T09:03:07.692Z,40.15
2019-02-25T09:04:07.736Z,40.05
2019-02-25T09:05:07.665Z,40.13
2019-02-25T09:06:07.653Z,40.33
2019-02-25T09:07:07.643Z,39.62
2019-02-25T09:08:07.639Z,40.01
2019-02-25T09:09:07.623Z,38.78
2019-02-25T09:10:07.635Z,38.78
2019-02-25T09:11:13.887Z,38.78
2019-02-25T09:12:08.583Z,38.66
2019-02-25T09:13:07.574Z,38.35
2019-02-25T09:14:07.562Z,38.76
2019-02-25T09:15:07.553Z,38.75
2019-02-25T09:16:07.554Z,38.73
2019-02-25T09:17:07.528Z,36.25
2019-02-25T09:18:07.522Z,36.53
2019-02-25T09:19:07.502Z,35.28
2019-02-25T09:20:07.492Z,34.01
2019-02-25T09:21:08.175Z,33.48
2019-02-25T09:22:07.469Z,32.02
2019-02-25T09:23:07.459Z,30.77
2019-02-25T09:24:07.452Z,29.43
2019-02-25T09:25:07.448Z,28.08
2019-02-25T09:26:07.460Z,27.43
2019-02-25T09:27:09.132Z,27.30
2019-02-25T09:28:08.125Z,26.47
2019-02-25T09:29:07.394Z,25.43
2019-02-25T09:30:07.380Z,25.20
2019-02-25T09:31:07.369Z,24.08
2019-02-25T09:32:07.361Z,23.84
2019-02-25T09:33:07.369Z,23.23
2019-02-25T09:34:07.335Z,23.00
2019-02-25T09:35:07.323Z,21.78
2019-02-25T09:36:07.311Z,21.67
2019-02-25T09:37:07.300Z,21.15
2019-02-25T09:38:07.314Z,21.15
2019-02-25T09:39:07.304Z,20.94
2019-02-25T09:40:07.270Z,20.94
2019-02-25T09:41:07.257Z,20.53
2019-02-25T09:42:07.261Z,20.32
2019-02-25T09:43:07.233Z,20.23
2019-02-25T09:44:07.253Z,20.73
2019-02-25T09:45:07.210Z,20.21
2019-02-25T09:46:07.198Z,19.92
2019-02-25T09:47:07.191Z,20.31
2019-02-25T09:48:07.235Z,19.70
2019-02-25T09:49:07.164Z,19.90
2019-02-25T09:50:07.180Z,20.09
2019-02-25T09:51:07.149Z,19.60
2019-02-25T09:52:07.130Z,19.57
2019-02-25T09:53:07.420Z,18.28
2019-02-25T09:54:07.109Z,18.47
2019-02-25T09:55:07.102Z,18.67
2019-02-25T09:56:07.119Z,17.56
2019-02-25T09:57:07.074Z,17.76
2019-02-25T09:58:07.063Z,17.05
2019-02-25T09:59:07.051Z,17.95
2019-02-25T10:00:07.038Z,17.46
2019-02-25T10:01:07.029Z,17.25
2019-02-25T10:02:07.045Z,17.74
2019-02-25T10:03:07.006Z,18.04
2019-02-25T10:04:08.752Z,17.04
2019-02-25T10:05:06.983Z,17.14
2019-02-25T10:06:06.973Z,17.03
2019-02-25T10:07:06.964Z,16.73
2019-02-25T10:08:06.967Z,16.43
2019-02-25T10:09:06.943Z,16.42
2019-02-25T10:10:06.942Z,16.33
2019-02-25T10:11:06.922Z,15.42
2019-02-25T10:12:06.906Z,15.82
2019-02-25T10:13:06.939Z,15.82
2019-02-25T10:14:06.882Z,15.42
2019-02-25T10:15:06.872Z,15.52
2019-02-25T10:16:06.863Z,16.02
2019-02-25T10:17:06.849Z,16.31
2019-02-25T10:18:06.842Z,16.61
2019-02-25T10:19:06.857Z,15.91
2019-02-25T10:20:06.818Z,16.49
2019-02-25T10:21:06.805Z,15.50
2019-02-25T10:22:06.798Z,15.60
2019-02-25T10:23:06.779Z,15.10
2019-02-25T10:24:06.769Z,15.51
2019-02-25T10:25:06.788Z,15.01
2019-02-25T10:26:06.747Z,14.92
2019-02-25T10:27:06.735Z,14.72
2019-02-25T10:28:06.723Z,15.12
2019-02-25T10:29:06.713Z,15.72
2019-02-25T10:30:06.702Z,15.71
2019-02-25T10:31:06.724Z,15.12
2019-02-25T10:32:06.698Z,14.91
2019-02-25T10:33:06.667Z,15.80
2019-02-25T10:34:07.676Z,15.70
2019-02-25T10:35:06.651Z,15.60
2019-02-25T10:36:06.634Z,15.31
2019-02-25T10:37:06.656Z,15.70
2019-02-25T10:38:06.614Z,16.73
2019-02-25T10:39:08.574Z,17.87
2019-02-25T10:40:06.589Z,19.02
2019-02-25T10:41:06.605Z,19.85
2019-02-25T10:42:06.569Z,20.50
2019-02-25T10:43:06.578Z,21.00
2019-02-25T10:44:08.511Z,21.50
2019-02-25T10:45:07.228Z,20.78
2019-02-25T10:46:07.119Z,19.25
2019-02-25T10:47:06.514Z,19.53
2019-02-25T10:48:06.548Z,18.51
2019-02-25T10:49:11.594Z,17.49
2019-02-25T10:50:07.523Z,17.47
2019-02-25T10:51:07.054Z,17.37
2019-02-25T10:52:08.556Z,16.96
2019-02-25T10:53:06.446Z,16.47
2019-02-25T10:54:06.467Z,16.16
2019-02-25T10:55:06.425Z,16.86
2019-02-25T10:56:06.419Z,16.75
2019-02-25T10:57:06.407Z,16.34
2019-02-25T10:58:06.395Z,16.53
2019-02-25T10:59:08.094Z,17.02
2019-02-25T11:00:07.487Z,16.52
2019-02-25T11:01:08.475Z,16.51
2019-02-25T11:02:08.596Z,15.91
2019-02-25T11:03:06.339Z,15.70
2019-02-25T11:04:06.326Z,15.51
2019-02-25T11:05:06.331Z,16.11
2019-02-25T11:06:06.320Z,16.71
2019-02-25T11:07:07.822Z,16.71
2019-02-25T11:08:07.412Z,16.82
2019-02-25T11:09:07.014Z,16.75
2019-02-25T11:10:06.260Z,18.79
2019-02-25T11:11:06.286Z,19.23
2019-02-25T11:12:06.239Z,21.29
2019-02-25T11:13:06.234Z,22.03
2019-02-25T11:14:07.260Z,23.37
2019-02-25T11:15:07.399Z,24.21
2019-02-25T11:16:06.221Z,24.96
2019-02-25T11:17:06.182Z,26.70
2019-02-25T11:18:06.172Z,26.12
2019-02-25T11:19:06.162Z,26.84
2019-02-25T11:20:06.153Z,27.06
2019-02-25T11:21:13.778Z,28.39
2019-02-25T11:22:08.339Z,28.51
2019-02-25T11:23:06.126Z,28.73
2019-02-25T11:24:06.109Z,28.93
2019-02-25T11:25:06.097Z,29.47
2019-02-25T11:26:06.089Z,29.97
2019-02-25T11:27:07.340Z,29.77
2019-02-25T11:28:07.657Z,30.40
2019-02-25T11:29:07.745Z,30.40
2019-02-25T11:30:06.059Z,30.51
2019-02-25T11:31:06.022Z,31.01
2019-02-25T11:32:06.013Z,30.91
2019-02-25T11:33:06.019Z,31.12
2019-02-25T11:34:07.995Z,31.43
2019-02-25T11:35:06.752Z,32.35
2019-02-25T11:36:05.970Z,31.96
2019-02-25T11:37:06.011Z,31.96
2019-02-25T11:38:05.979Z,31.46
2019-02-25T11:39:06.942Z,32.49
2019-02-25T11:40:06.709Z,31.88
2019-02-25T11:41:07.115Z,31.98
2019-02-25T11:42:07.835Z,32.20
2019-02-25T11:43:05.895Z,32.50
2019-02-25T11:44:05.908Z,33.11
2019-02-25T11:45:05.871Z,33.83
2019-02-25T11:46:05.859Z,33.42
2019-02-25T11:47:05.844Z,34.44
2019-02-25T11:48:05.839Z,34.44
2019-02-25T11:49:05.822Z,35.25
2019-02-25T11:50:05.837Z,35.15
2019-02-25T11:51:05.802Z,34.23
2019-02-25T11:52:15.264Z,35.25
2019-02-25T11:53:05.775Z,33.32
2019-02-25T11:54:05.767Z,34.03
2019-02-25T11:55:05.753Z,35.46
2019-02-25T11:56:05.770Z,35.36
2019-02-25T11:57:05.741Z,34.03
2019-02-25T11:58:05.745Z,34.34
2019-02-25T11:59:05.708Z,33.52
2019-02-25T12:00:05.694Z,34.34
2019-02-25T12:01:05.710Z,34.13
2019-02-25T12:02:05.675Z,34.03
2019-02-25T12:03:05.667Z,33.62
2019-02-25T12:04:05.648Z,35.05
2019-02-25T12:05:05.638Z,35.05
2019-02-25T12:06:05.626Z,34.95
2019-02-25T12:07:08.281Z,35.05
2019-02-25T12:08:06.259Z,35.66
2019-02-25T12:09:06.591Z,35.25
2019-02-25T12:10:05.580Z,35.36
2019-02-25T12:11:05.570Z,35.66
2019-02-25T12:12:05.559Z,35.05
2019-02-25T12:13:06.277Z,34.25
2019-02-25T12:14:08.258Z,35.06
2019-02-25T12:15:05.523Z,34.35
2019-02-25T12:16:05.517Z,33.54
2019-02-25T12:17:05.503Z,34.05
2019-02-25T12:18:05.518Z,34.35
2019-02-25T12:19:05.480Z,34.05
2019-02-25T12:20:05.471Z,33.95
2019-02-25T12:21:05.464Z,32.72
2019-02-25T12:22:05.447Z,33.95
2019-02-25T12:23:05.499Z,33.52
2019-02-25T12:24:06.264Z,33.93
2019-02-25T12:25:05.411Z,33.93
2019-02-25T12:26:05.418Z,32.72
2019-02-25T12:27:05.392Z,32.91
2019-02-25T12:28:05.388Z,33.22
2019-02-25T12:29:10.749Z,32.10
2019-02-25T12:30:06.394Z,32.10
2019-02-25T12:31:05.362Z,32.82
2019-02-25T12:32:05.373Z,31.70
2019-02-25T12:33:05.322Z,31.81
2019-02-25T12:34:05.313Z,33.13
2019-02-25T12:35:05.301Z,33.04
2019-02-25T12:36:05.312Z,32.74
2019-02-25T12:37:05.282Z,32.94
2019-02-25T12:38:05.266Z,33.86
2019-02-25T12:39:05.254Z,32.84
2019-02-25T12:40:05.248Z,34.06
2019-02-25T12:41:05.253Z,33.65
2019-02-25T12:42:05.248Z,34.47
2019-02-25T12:43:05.220Z,34.18
2019-02-25T12:44:05.197Z,34.17
2019-02-25T12:45:05.193Z,34.47
2019-02-25T12:46:05.201Z,32.53
2019-02-25T12:47:05.164Z,32.74
2019-02-25T12:48:05.157Z,33.45
2019-02-25T12:49:06.800Z,32.53
2019-02-25T12:50:06.805Z,33.25
2019-02-25T12:51:05.118Z,33.15
2019-02-25T12:52:05.122Z,32.74